Time;durP1;ratioP1;P1;durP2;ratioP2;P2;SDS_P1;SDS_P2;PMS_P1;PMS_P2;Temp;Humidity;BMP_temperature;BMP_pressure;BME280_temperature;BME280_humidity;BME280_pressure;Samples;Min_cycle;Max_cycle;Signal;HPM_P1;HPM_P2
2022/06/11 00:01:07;;;;;;;2.90;2.10;;;;;;;25.47;49.89;100445.91;106866;1283;62078;-84
2022/06/11 00:03:33;;;;;;;3.40;2.30;;;;;;;25.47;49.81;100437.23;107034;1281;73821;-83
2022/06/11 00:05:59;;;;;;;4.10;2.20;;;;;;;25.47;49.92;100436.17;106952;1281;75692;-85
2022/06/11 00:08:25;;;;;;;3.40;2.30;;;;;;;25.47;49.95;100432.37;106971;1281;62160;-83
2022/06/11 00:10:51;;;;;;;3.40;2.40;;;;;;;25.47;49.99;100429.32;107063;1283;62001;-83
2022/06/11 00:13:22;;;;;;;4.10;2.30;;;;;;;25.47;50.03;100420.89;106921;1283;61956;-82
2022/06/11 00:15:49;;;;;;;3.90;2.20;;;;;;;25.47;49.99;100420.33;106893;1283;76531;-82
2022/06/11 00:18:15;;;;;;;3.40;2.40;;;;;;;25.47;49.91;100418.00;106916;1283;60863;-83
2022/06/11 00:20:41;;;;;;;4.00;2.50;;;;;;;25.47;50.01;100420.16;106873;1283;62098;-82
2022/06/11 00:23:07;;;;;;;3.60;2.30;;;;;;;25.47;49.99;100418.17;106857;1283;62027;-83
2022/06/11 00:25:34;;;;;;;4.50;2.50;;;;;;;25.47;49.95;100423.17;107120;1281;62085;-83
2022/06/11 00:28:02;;;;;;;4.00;2.40;;;;;;;25.47;50.05;100421.44;107036;1281;61912;-83
2022/06/11 00:30:28;;;;;;;3.40;2.20;;;;;;;25.47;50.19;100421.27;106984;1281;61920;-83
2022/06/11 00:32:55;;;;;;;3.70;2.20;;;;;;;25.47;49.88;100421.45;107143;1281;62082;-82
2022/06/11 00:35:22;;;;;;;4.20;2.40;;;;;;;25.47;49.97;100419.98;107211;1281;76564;-83
2022/06/11 00:37:48;;;;;;;3.40;2.40;;;;;;;25.47;50.13;100421.81;107112;1281;62075;-83
2022/06/11 00:40:15;;;;;;;2.80;2.10;;;;;;;25.46;49.95;100420.96;107285;1281;62199;-83
2022/06/11 00:42:41;;;;;;;5.10;2.40;;;;;;;25.46;50.00;100422.21;106942;1281;72758;-82
2022/06/11 00:45:25;;;;;;;3.20;2.30;;;;;;;25.47;50.03;100424.14;106953;1281;62188;-84
2022/06/11 00:47:59;;;;;;;3.70;2.50;;;;;;;25.46;49.91;100422.58;107222;1283;61824;-83
2022/06/11 00:50:41;;;;;;;3.60;2.40;;;;;;;25.47;50.13;100431.91;106658;1283;62032;-82
2022/06/11 00:53:29;;;;;;;3.40;2.50;;;;;;;25.47;50.03;100430.27;107233;1283;73526;-82
2022/06/11 00:55:55;;;;;;;3.50;2.50;;;;;;;25.46;50.04;100428.73;106872;1283;76334;-84
2022/06/11 00:58:23;;;;;;;4.60;2.50;;;;;;;25.46;49.95;100426.05;106909;1283;62194;-83
2022/06/11 01:00:52;;;;;;;3.80;2.50;;;;;;;25.46;50.10;100430.17;106959;1283;62004;-82
2022/06/11 01:03:24;;;;;;;3.30;2.40;;;;;;;25.46;49.96;100426.39;106868;1283;72742;-82
2022/06/11 01:05:56;;;;;;;4.30;2.50;;;;;;;25.46;50.10;100420.82;106929;1283;75521;-83
2022/06/11 01:08:36;;;;;;;3.20;2.30;;;;;;;25.46;50.17;100418.83;106644;1283;62053;-84
2022/06/11 01:11:07;;;;;;;3.80;2.50;;;;;;;25.46;50.14;100418.83;106871;1283;60514;-82
2022/06/11 01:14:13;;;;;;;4.10;2.40;;;;;;;25.46;50.18;100416.33;106857;1284;73768;-83
2022/06/11 01:16:47;;;;;;;3.60;2.20;;;;;;;25.45;50.11;100418.55;105493;1294;75539;-83
2022/06/11 01:19:19;;;;;;;3.20;2.40;;;;;;;25.46;50.14;100419.22;105504;1294;62188;-82
2022/06/11 01:22:03;;;;;;;3.20;2.30;;;;;;;25.46;50.01;100419.94;105501;1294;61924;-82
2022/06/11 01:24:59;;;;;;;3.10;2.20;;;;;;;25.45;49.98;100420.31;105502;1294;73409;-83
2022/06/11 01:27:53;;;;;;;4.40;2.60;;;;;;;25.45;49.97;100423.77;105487;1294;75289;-82
2022/06/11 01:30:31;;;;;;;3.80;2.10;;;;;;;25.44;50.14;100432.45;105544;1294;62062;-84
2022/06/11 01:32:59;;;;;;;3.30;2.40;;;;;;;25.45;50.14;100431.38;105496;1294;60345;-83
2022/06/11 01:35:40;;;;;;;3.40;2.30;;;;;;;25.44;50.12;100431.58;105529;1295;73663;-81
2022/06/11 01:38:20;;;;;;;3.00;2.20;;;;;;;25.44;50.22;100429.25;105494;1295;76459;-81
2022/06/11 01:40:56;;;;;;;3.30;2.20;;;;;;;25.44;50.14;100427.05;105490;1295;62751;-82
2022/06/11 01:43:32;;;;;;;3.30;2.30;;;;;;;25.44;50.22;100424.00;105472;1295;60853;-82
2022/06/11 01:46:00;;;;;;;4.00;2.30;;;;;;;25.45;50.24;100422.90;105491;1295;73754;-83
2022/06/11 01:48:26;;;;;;;3.20;2.20;;;;;;;25.44;50.11;100422.75;105399;1297;76527;-83
2022/06/11 01:50:58;;;;;;;3.70;2.40;;;;;;;25.45;50.15;100425.05;105524;1295;62062;-83
2022/06/11 01:53:54;;;;;;;4.00;2.30;;;;;;;25.45;50.12;100431.54;105626;1281;61945;-85
2022/06/11 01:56:44;;;;;;;3.40;2.50;;;;;;;25.45;50.26;100429.02;106968;1281;72622;-84
2022/06/11 01:59:25;;;;;;;3.40;2.10;;;;;;;25.44;50.21;100423.12;106921;1283;75245;-83
2022/06/11 02:02:02;;;;;;;3.80;2.30;;;;;;;25.44;50.07;100421.14;107261;1282;61938;-83
2022/06/11 02:04:43;;;;;;;3.50;2.30;;;;;;;25.44;50.13;100415.55;107254;1283;63258;-83
2022/06/11 02:07:24;;;;;;;4.10;2.30;;;;;;;25.43;50.31;100416.34;107203;1283;72808;-83
2022/06/11 02:10:09;;;;;;;3.00;2.20;;;;;;;25.43;50.28;100420.85;106564;1283;74121;-82
2022/06/11 02:12:40;;;;;;;6.40;2.60;;;;;;;25.43;50.36;100421.40;106894;1283;62020;-84
2022/06/11 02:15:12;;;;;;;3.40;2.30;;;;;;;25.43;50.35;100419.98;106895;1283;61966;-82
2022/06/11 02:17:40;;;;;;;4.40;2.40;;;;;;;25.43;49.96;100422.66;106977;1282;73671;-83
2022/06/11 02:20:09;;;;;;;3.40;2.40;;;;;;;25.43;50.30;100426.63;106904;1283;76550;-83
2022/06/11 02:22:41;;;;;;;3.60;2.40;;;;;;;25.43;50.23;100425.39;107244;1283;62014;-82
2022/06/11 02:25:13;;;;;;;4.20;2.40;;;;;;;25.43;50.42;100427.75;107043;1283;62049;-82
2022/06/11 02:27:40;;;;;;;3.50;2.30;;;;;;;25.43;50.29;100433.83;106664;1283;72765;-81
2022/06/11 02:30:07;;;;;;;4.60;2.20;;;;;;;25.43;50.23;100429.88;106941;1282;62055;-83
2022/06/11 02:32:32;;;;;;;3.10;2.20;;;;;;;25.43;50.33;100430.96;106880;1283;61970;-80
2022/06/11 02:35:02;;;;;;;3.10;2.40;;;;;;;25.43;50.08;100437.30;106947;1283;63740;-83
2022/06/11 02:37:29;;;;;;;4.20;2.60;;;;;;;25.43;50.51;100439.56;106906;1283;72576;-82
2022/06/11 02:40:00;;;;;;;3.70;2.30;;;;;;;25.43;50.44;100437.24;106910;1283;75617;-82
2022/06/11 02:42:26;;;;;;;3.50;2.40;;;;;;;25.43;50.30;100440.70;107040;1283;61896;-81
2022/06/11 02:44:51;;;;;;;4.10;2.70;;;;;;;25.43;50.40;100443.02;106879;1283;62096;-83
2022/06/11 02:47:18;;;;;;;3.90;2.40;;;;;;;25.43;50.28;100446.64;107149;1281;62127;-83
2022/06/11 02:49:44;;;;;;;3.50;2.30;;;;;;;25.43;50.34;100447.88;106941;1281;62055;-82
2022/06/11 02:52:13;;;;;;;4.60;2.60;;;;;;;25.43;50.40;100446.86;107172;1281;62104;-81
2022/06/11 02:54:39;;;;;;;5.80;2.70;;;;;;;25.43;50.35;100453.30;106657;1283;62147;-83
2022/06/11 02:57:06;;;;;;;4.80;2.40;;;;;;;25.42;50.37;100451.55;106596;1283;61948;-83
2022/06/11 02:59:32;;;;;;;2.80;2.00;;;;;;;25.42;50.33;100458.04;107219;1281;76641;-83
2022/06/11 03:01:58;;;;;;;3.80;2.30;;;;;;;25.42;50.44;100465.05;107289;1281;62143;-82
2022/06/11 03:04:25;;;;;;;3.50;2.20;;;;;;;25.43;50.36;100466.11;107153;1281;62083;-83
2022/06/11 03:06:51;;;;;;;4.30;2.30;;;;;;;25.43;50.34;100469.89;106937;1283;61936;-82
2022/06/11 03:09:18;;;;;;;5.30;2.30;;;;;;;25.42;50.52;100467.56;107267;1281;62144;-83
2022/06/11 03:11:44;;;;;;;4.30;2.30;;;;;;;25.42;50.39;100466.15;106962;1281;62044;-85
2022/06/11 03:14:10;;;;;;;3.80;2.20;;;;;;;25.43;50.47;100463.23;106963;1283;62055;-83
2022/06/11 03:16:37;;;;;;;3.10;2.20;;;;;;;25.42;50.36;100463.27;107235;1283;62178;-84
2022/06/11 03:19:04;;;;;;;4.00;2.60;;;;;;;25.42;50.52;100464.38;106969;1283;61967;-83
2022/06/11 03:21:30;;;;;;;4.80;2.40;;;;;;;25.43;50.34;100463.79;107053;1283;62051;-83
2022/06/11 03:23:55;;;;;;;3.70;2.50;;;;;;;25.43;50.24;100468.10;107234;1282;62062;-83
2022/06/11 03:26:21;;;;;;;4.10;2.50;;;;;;;25.42;50.57;100469.04;106987;1283;62208;-84
2022/06/11 03:28:47;;;;;;;4.40;2.40;;;;;;;25.42;50.37;100470.09;107269;1283;62145;-86
2022/06/11 03:31:12;;;;;;;3.70;2.40;;;;;;;25.43;50.42;100472.06;107140;1283;75502;-82
2022/06/11 03:33:39;;;;;;;4.70;2.20;;;;;;;25.42;50.46;100475.16;107172;1281;62461;-83
2022/06/11 03:36:07;;;;;;;5.50;2.30;;;;;;;25.42;50.47;100473.70;107070;1283;62242;-83
2022/06/11 03:38:33;;;;;;;3.50;2.10;;;;;;;25.42;50.43;100479.28;107173;1281;71828;-82
2022/06/11 03:40:59;;;;;;;4.40;2.40;;;;;;;25.43;50.56;100480.90;107000;1281;62068;-83
2022/06/11 03:43:25;;;;;;;4.00;2.70;;;;;;;25.42;50.57;100477.69;107247;1283;61935;-83
2022/06/11 03:45:51;;;;;;;3.90;2.30;;;;;;;25.42;50.48;100475.87;107191;1282;62120;-82
2022/06/11 03:48:17;;;;;;;3.40;2.20;;;;;;;25.43;50.46;100477.09;107245;1283;62079;-83
2022/06/11 03:50:43;;;;;;;3.60;2.30;;;;;;;25.42;50.47;100480.55;106926;1283;62056;-82
2022/06/11 03:53:10;;;;;;;3.60;2.50;;;;;;;25.42;50.63;100476.61;107242;1283;62043;-83
2022/06/11 03:55:35;;;;;;;3.90;2.30;;;;;;;25.43;50.50;100474.23;106947;1281;62085;-83
2022/06/11 03:58:01;;;;;;;4.00;2.30;;;;;;;25.43;50.57;100471.85;107103;1283;62124;-82
2022/06/11 04:03:13;;;;;;;3.90;2.60;;;;;;;25.43;50.58;100480.54;107246;1281;76642;-82
2022/06/11 04:05:39;;;;;;;3.40;2.20;;;;;;;25.43;50.73;100481.59;106946;1283;62050;-83
2022/06/11 04:08:05;;;;;;;3.60;2.30;;;;;;;25.43;50.58;100487.02;107046;1283;62000;-83
2022/06/11 04:10:31;;;;;;;4.10;2.60;;;;;;;25.43;50.67;100486.45;106940;1283;62088;-84
2022/06/11 04:12:57;;;;;;;4.80;2.10;;;;;;;25.43;50.47;100490.38;107023;1283;62172;-83
2022/06/11 04:15:22;;;;;;;3.70;2.30;;;;;;;25.43;50.64;100490.05;106840;1283;62115;-86
2022/06/11 04:17:48;;;;;;;3.60;2.40;;;;;;;25.43;50.54;100490.91;107188;1283;61891;-83
2022/06/11 04:20:14;;;;;;;3.90;2.50;;;;;;;25.43;50.59;100494.73;107106;1283;62074;-87
2022/06/11 04:22:40;;;;;;;4.20;2.30;;;;;;;25.43;50.64;100502.27;106942;1283;72678;-82
2022/06/11 04:25:06;;;;;;;5.20;2.20;;;;;;;25.44;50.60;100501.52;107036;1283;59500;-83
2022/06/11 04:27:32;;;;;;;4.60;2.20;;;;;;;25.43;50.68;100502.09;107228;1282;62063;-83
2022/06/11 04:29:58;;;;;;;3.50;2.30;;;;;;;25.43;50.48;100502.80;107246;1281;62174;-83
2022/06/11 04:32:24;;;;;;;3.70;2.40;;;;;;;25.43;50.49;100501.55;106968;1283;72304;-83
2022/06/11 04:34:50;;;;;;;3.10;2.10;;;;;;;25.43;50.77;100504.96;107026;1283;59723;-82
2022/06/11 04:37:17;;;;;;;3.40;2.40;;;;;;;25.44;50.70;100504.55;107177;1283;62261;-83
2022/06/11 04:39:44;;;;;;;3.70;2.30;;;;;;;25.44;50.68;100509.44;107261;1281;62077;-86
2022/06/11 04:42:11;;;;;;;4.20;2.40;;;;;;;25.44;50.68;100507.98;107283;1281;62047;-83
2022/06/11 04:44:41;;;;;;;3.80;2.30;;;;;;;25.44;50.73;100509.09;107242;1283;61845;-80
2022/06/11 04:47:07;;;;;;;3.10;2.10;;;;;;;25.43;50.76;100510.38;107217;1282;62041;-83
2022/06/11 04:49:33;;;;;;;5.40;2.50;;;;;;;25.44;50.54;100514.29;106934;1283;62059;-82
2022/06/11 04:51:58;;;;;;;4.90;2.70;;;;;;;25.44;50.64;100513.92;106947;1283;62047;-82
2022/06/11 04:54:24;;;;;;;3.80;2.50;;;;;;;25.44;50.65;100512.13;107050;1282;62034;-82
2022/06/11 04:56:50;;;;;;;4.00;2.30;;;;;;;25.44;50.71;100516.29;107029;1283;62117;-82
2022/06/11 04:59:16;;;;;;;3.50;2.30;;;;;;;25.44;50.62;100522.80;107299;1281;62042;-89
2022/06/11 05:01:42;;;;;;;3.30;2.20;;;;;;;25.44;50.51;100521.15;107294;1283;62042;-83
2022/06/11 05:04:09;;;;;;;5.40;2.40;;;;;;;25.44;50.55;100523.45;106977;1282;73005;-82
2022/06/11 05:06:39;;;;;;;4.10;2.30;;;;;;;25.43;50.67;100518.44;106993;1282;76319;-81
2022/06/11 05:09:08;;;;;;;3.30;2.50;;;;;;;25.44;50.69;100517.54;106956;1281;62088;-83
2022/06/11 05:11:34;;;;;;;3.20;2.10;;;;;;;25.44;50.78;100514.80;106495;1286;61978;-82
2022/06/11 05:13:59;;;;;;;3.70;2.40;;;;;;;25.44;50.56;100520.23;106658;1283;62036;-82
2022/06/11 05:16:25;;;;;;;4.30;2.30;;;;;;;25.44;50.57;100525.27;106824;1284;62047;-83
2022/06/11 05:18:51;;;;;;;3.80;2.60;;;;;;;25.44;50.85;100525.08;106960;1283;62145;-85
2022/06/11 05:21:17;;;;;;;5.10;2.50;;;;;;;25.45;50.76;100528.48;106928;1283;61179;-82
2022/06/11 05:23:43;;;;;;;3.30;2.40;;;;;;;25.44;50.69;100529.02;106673;1284;62079;-82
2022/06/11 05:26:10;;;;;;;3.10;2.30;;;;;;;25.45;50.82;100528.65;106930;1283;62035;-82
2022/06/11 05:28:36;;;;;;;2.90;2.20;;;;;;;25.45;50.73;100529.52;106896;1283;76525;-83
2022/06/11 05:31:02;;;;;;;4.10;2.10;;;;;;;25.44;50.75;100529.56;107172;1281;62090;-82
2022/06/11 05:33:28;;;;;;;3.90;2.40;;;;;;;25.45;50.81;100531.33;106922;1283;62185;-83
2022/06/11 05:35:54;;;;;;;3.70;2.40;;;;;;;25.45;50.68;100536.73;106958;1283;62052;-82
2022/06/11 05:38:24;;;;;;;3.00;2.30;;;;;;;25.45;50.77;100542.50;107286;1281;62603;-83
2022/06/11 05:40:50;;;;;;;4.20;2.40;;;;;;;25.45;50.90;100547.34;106904;1283;61965;-85
2022/06/11 05:43:16;;;;;;;4.80;2.40;;;;;;;25.45;50.67;100547.37;106865;1283;61964;-81
2022/06/11 05:45:51;;;;;;;3.50;2.30;;;;;;;25.44;50.66;100546.11;106890;1283;62194;-83
2022/06/11 05:48:20;;;;;;;3.10;2.30;;;;;;;25.45;50.76;100546.65;107271;1281;76272;-83
2022/06/11 05:50:48;;;;;;;3.00;2.40;;;;;;;25.45;50.66;100548.60;107064;1282;61836;-83
2022/06/11 05:53:15;;;;;;;3.40;2.40;;;;;;;25.45;50.83;100551.66;107002;1281;61973;-82
2022/06/11 05:55:42;;;;;;;3.00;2.30;;;;;;;25.45;50.67;100552.58;106913;1281;73340;-82
2022/06/11 05:58:10;;;;;;;4.20;2.30;;;;;;;25.45;50.93;100557.64;107195;1281;62141;-84
2022/06/11 06:00:36;;;;;;;3.60;2.40;;;;;;;25.45;50.83;100559.74;107034;1283;61975;-81
2022/06/11 06:03:02;;;;;;;4.80;2.50;;;;;;;25.45;50.71;100562.64;107221;1283;62118;-82
2022/06/11 06:05:28;;;;;;;4.20;2.40;;;;;;;25.45;50.83;100561.26;106940;1281;62038;-83
2022/06/11 06:07:54;;;;;;;3.60;2.30;;;;;;;25.45;50.80;100561.20;107278;1281;62074;-82
2022/06/11 06:10:22;;;;;;;4.60;2.80;;;;;;;25.45;50.83;100557.79;106978;1283;62092;-83
2022/06/11 06:12:49;;;;;;;3.40;2.60;;;;;;;25.46;50.86;100556.67;107232;1283;62059;-84
2022/06/11 06:15:17;;;;;;;3.50;2.40;;;;;;;25.45;50.87;100556.33;106304;1283;1012279;-82
2022/06/11 06:17:42;;;;;;;3.90;2.30;;;;;;;25.45;50.72;100552.55;106880;1283;76436;-86
2022/06/11 06:20:10;;;;;;;3.90;2.40;;;;;;;25.45;50.92;100553.48;107000;1281;62077;-83
2022/06/11 06:22:36;;;;;;;3.70;2.40;;;;;;;25.46;50.88;100558.46;107237;1283;62195;-83
2022/06/11 06:25:02;;;;;;;4.00;2.30;;;;;;;25.46;51.00;100554.89;106911;1283;62033;-83
2022/06/11 06:27:28;;;;;;;4.20;2.70;;;;;;;25.45;50.95;100556.16;106849;1283;62065;-82
2022/06/11 06:29:53;;;;;;;4.30;2.40;;;;;;;25.45;50.94;100557.98;106980;1281;62203;-85
2022/06/11 06:32:19;;;;;;;3.60;2.80;;;;;;;25.45;51.04;100559.77;106902;1283;62287;-82
2022/06/11 06:34:45;;;;;;;4.10;2.40;;;;;;;25.45;51.00;100566.27;106900;1284;62072;-83
2022/06/11 06:37:11;;;;;;;3.60;2.40;;;;;;;25.45;51.03;100566.63;107166;1283;73718;-83
2022/06/11 06:39:37;;;;;;;4.70;2.50;;;;;;;25.45;51.02;100572.58;107210;1281;62017;-82
2022/06/11 06:42:03;;;;;;;3.80;2.40;;;;;;;25.45;51.14;100567.33;106970;1283;62149;-82
2022/06/11 06:44:28;;;;;;;3.70;2.60;;;;;;;25.45;51.07;100567.14;107060;1281;62697;-82
2022/06/11 06:46:54;;;;;;;4.30;2.70;;;;;;;25.45;51.00;100570.21;107223;1281;62050;-84
2022/06/11 06:49:20;;;;;;;5.20;2.30;;;;;;;25.45;50.93;100573.66;106979;1283;62051;-83
2022/06/11 06:51:45;;;;;;;4.80;2.80;;;;;;;25.45;51.09;100576.89;106907;1283;63209;-83
2022/06/11 06:54:11;;;;;;;3.80;2.50;;;;;;;25.45;50.91;100576.72;106969;1283;61849;-82
2022/06/11 06:56:36;;;;;;;3.70;2.50;;;;;;;25.45;51.13;100583.75;107267;1281;62044;-82
2022/06/11 06:59:03;;;;;;;3.80;2.50;;;;;;;25.44;51.02;100585.94;106970;1281;62075;-84
2022/06/11 07:01:29;;;;;;;3.30;2.50;;;;;;;25.44;51.09;100591.71;106963;1281;62109;-83
2022/06/11 07:03:55;;;;;;;5.20;2.50;;;;;;;25.44;51.06;100595.13;107225;1283;61898;-82
2022/06/11 07:06:21;;;;;;;3.70;2.40;;;;;;;25.44;51.08;100597.84;106688;1283;62076;-83
2022/06/11 07:08:52;;;;;;;4.60;2.80;;;;;;;25.44;51.02;100593.17;107034;1283;62236;-82
2022/06/11 07:11:18;;;;;;;4.50;2.60;;;;;;;25.44;51.06;100592.27;106921;1283;75720;-83
2022/06/11 07:13:44;;;;;;;4.70;2.70;;;;;;;25.45;51.10;100594.40;106898;1283;62152;-81
2022/06/11 07:16:09;;;;;;;3.70;2.60;;;;;;;25.44;51.17;100594.08;107219;1283;62150;-81
2022/06/11 07:18:47;;;;;;;4.50;2.50;;;;;;;25.44;51.09;100596.07;106961;1283;62045;-82
2022/06/11 07:21:19;;;;;;;3.80;2.70;;;;;;;25.44;51.05;100595.91;107192;1283;75351;-82
2022/06/11 07:23:47;;;;;;;3.00;2.30;;;;;;;25.44;51.12;100601.48;106883;1283;62025;-83
2022/06/11 07:26:15;;;;;;;3.30;2.40;;;;;;;25.44;51.11;100606.00;106975;1283;62175;-83
2022/06/11 07:28:45;;;;;;;3.50;2.60;;;;;;;25.44;51.13;100604.20;106682;1283;72799;-83
2022/06/11 07:31:12;;;;;;;4.20;2.60;;;;;;;25.43;51.13;100605.11;107038;1283;75535;-83
2022/06/11 07:33:38;;;;;;;4.00;2.50;;;;;;;25.44;51.16;100607.08;106890;1283;62098;-83
2022/06/11 07:36:04;;;;;;;4.10;2.80;;;;;;;25.44;51.21;100615.73;106971;1283;62075;-82
2022/06/11 07:38:30;;;;;;;3.70;2.60;;;;;;;25.44;51.10;100619.52;107221;1281;62059;-83
2022/06/11 07:40:55;;;;;;;3.90;2.90;;;;;;;25.44;51.19;100625.29;106865;1283;62074;-83
2022/06/11 07:43:21;;;;;;;4.30;2.60;;;;;;;25.43;51.11;100625.68;107270;1283;63265;-83
2022/06/11 07:45:48;;;;;;;4.10;2.90;;;;;;;25.43;51.21;100629.27;106884;1283;62796;-81
2022/06/11 07:48:13;;;;;;;5.30;2.70;;;;;;;25.43;51.06;100628.19;107271;1281;62026;-83
2022/06/11 07:50:45;;;;;;;5.30;2.90;;;;;;;25.43;51.11;100629.84;107213;1281;62069;-83
2022/06/11 07:53:11;;;;;;;5.90;2.80;;;;;;;25.43;51.13;100630.77;107065;1283;76442;-86
2022/06/11 07:55:38;;;;;;;3.60;2.60;;;;;;;25.42;51.17;100631.17;107004;1281;62102;-83
2022/06/11 07:58:05;;;;;;;4.60;2.90;;;;;;;25.43;51.21;100633.83;106975;1283;62110;-82
2022/06/11 08:00:35;;;;;;;4.00;2.80;;;;;;;25.42;51.15;100628.10;107099;1281;73764;-81
2022/06/11 08:03:01;;;;;;;4.10;2.50;;;;;;;25.42;51.21;100631.39;106990;1283;76466;-82
2022/06/11 08:05:26;;;;;;;4.10;2.60;;;;;;;25.42;51.31;100627.79;106949;1283;62794;-82
2022/06/11 08:07:52;;;;;;;5.10;2.80;;;;;;;25.42;51.31;100628.52;106915;1283;63010;-81
2022/06/11 08:10:19;;;;;;;3.80;2.70;;;;;;;25.42;51.28;100629.57;106970;1283;62048;-81
2022/06/11 08:12:45;;;;;;;4.00;2.70;;;;;;;25.41;51.32;100632.72;107101;1283;61961;-83
2022/06/11 08:15:11;;;;;;;4.60;2.70;;;;;;;25.41;51.30;100630.55;106866;1283;62016;-82
2022/06/11 08:17:37;;;;;;;5.40;2.70;;;;;;;25.42;51.20;100632.11;106715;1283;61958;-82
2022/06/11 08:20:04;;;;;;;4.10;2.90;;;;;;;25.41;51.24;100630.21;106747;1283;62270;-83
2022/06/11 08:22:30;;;;;;;4.00;2.70;;;;;;;25.42;51.37;100631.23;106689;1283;62764;-81
2022/06/11 08:24:56;;;;;;;4.30;2.90;;;;;;;25.42;51.05;100633.91;106749;1283;62095;-81
2022/06/11 08:27:22;;;;;;;3.50;2.60;;;;;;;25.42;51.14;100636.61;107216;1282;62041;-81
2022/06/11 08:29:47;;;;;;;3.80;2.80;;;;;;;25.42;51.30;100641.14;107008;1281;61954;-81
2022/06/11 08:32:14;;;;;;;5.00;3.00;;;;;;;25.42;51.35;100640.23;106838;1283;62059;-82
2022/06/11 08:34:44;;;;;;;3.80;2.60;;;;;;;25.42;51.24;100640.77;106702;1283;61945;-84
2022/06/11 08:37:10;;;;;;;4.00;2.70;;;;;;;25.42;51.26;100641.83;106978;1282;62082;-82
2022/06/11 08:39:36;;;;;;;4.00;2.70;;;;;;;25.42;51.22;100640.70;107063;1281;60800;-81
2022/06/11 08:42:02;;;;;;;4.10;2.80;;;;;;;25.42;51.25;100640.74;107001;1281;62223;-83
2022/06/11 08:44:29;;;;;;;3.60;2.70;;;;;;;25.42;51.30;100633.30;106877;1283;62051;-82
2022/06/11 08:46:55;;;;;;;4.60;2.90;;;;;;;25.42;51.31;100636.23;106825;1283;62070;-82
2022/06/11 08:49:35;;;;;;;3.90;2.50;;;;;;;25.42;51.29;100638.00;107013;1281;61909;-82
2022/06/11 08:52:09;;;;;;;4.70;2.70;;;;;;;25.42;51.24;100630.65;107325;1283;72959;-82
2022/06/11 08:54:37;;;;;;;3.70;2.70;;;;;;;25.42;51.21;100637.84;107243;1281;75707;-84
2022/06/11 08:57:25;;;;;;;3.50;2.60;;;;;;;25.42;51.47;100634.98;107268;1281;62085;-83
2022/06/11 09:00:06;;;;;;;4.10;2.70;;;;;;;25.42;51.31;100639.67;107238;1283;62063;-82
2022/06/11 09:02:59;;;;;;;4.40;2.70;;;;;;;25.42;51.23;100640.21;106969;1283;72599;-83
2022/06/11 09:06:03;;;;;;;4.30;2.60;;;;;;;25.41;51.51;100641.52;106884;1283;76466;-83
2022/06/11 09:08:55;;;;;;;4.20;2.90;;;;;;;25.40;51.47;100640.91;107213;1283;62053;-82
2022/06/11 09:11:54;;;;;;;4.50;2.90;;;;;;;25.40;51.40;100641.98;107226;1283;61827;-82
2022/06/11 09:14:52;;;;;;;3.60;2.50;;;;;;;25.40;51.35;100640.24;106447;1284;72601;-82
2022/06/11 09:17:35;;;;;;;4.60;2.80;;;;;;;25.39;51.33;100639.40;106068;1290;75586;-83
2022/06/11 09:20:11;;;;;;;4.40;2.80;;;;;;;25.39;51.31;100643.02;106266;1289;61949;-84
2022/06/11 09:22:47;;;;;;;3.80;2.50;;;;;;;25.39;51.29;100644.98;106053;1289;62094;-83
2022/06/11 09:25:51;;;;;;;4.40;2.90;;;;;;;25.39;51.20;100642.08;106240;1289;72621;-82
2022/06/11 09:28:40;;;;;;;4.90;2.80;;;;;;;25.39;51.32;100641.77;105447;1296;75568;-83
2022/06/11 09:31:10;;;;;;;4.50;2.50;;;;;;;25.39;51.28;100642.67;105472;1297;62075;-82
2022/06/11 09:34:06;;;;;;;4.10;2.70;;;;;;;25.39;51.29;100639.23;105423;1297;62035;-82
2022/06/11 09:36:38;;;;;;;4.30;2.80;;;;;;;25.39;51.42;100639.42;104895;1302;73704;-82
2022/06/11 09:39:35;;;;;;;3.90;2.90;;;;;;;25.39;51.21;100636.33;104769;1303;76015;-82
2022/06/11 09:42:29;;;;;;;4.70;2.50;;;;;;;25.39;51.30;100637.39;104933;1303;63070;-83
2022/06/11 09:45:16;;;;;;;3.70;2.60;;;;;;;25.39;51.35;100636.32;104924;1303;62055;-82
2022/06/11 09:48:12;;;;;;;3.90;2.60;;;;;;;25.39;51.42;100638.11;104879;1302;72275;-82
2022/06/11 09:50:43;;;;;;;4.20;3.00;;;;;;;25.39;51.46;100636.01;104878;1303;76445;-81
2022/06/11 09:53:15;;;;;;;3.50;2.60;;;;;;;25.40;51.43;100633.57;105103;1297;62135;-82
2022/06/11 09:55:50;;;;;;;4.30;2.80;;;;;;;25.40;51.39;100631.95;105454;1295;62097;-83
2022/06/11 09:58:26;;;;;;;5.20;2.70;;;;;;;25.40;51.36;100632.27;105508;1297;73914;-83
2022/06/11 10:00:57;;;;;;;4.80;3.00;;;;;;;25.41;51.66;100627.19;106024;1291;74601;-83
2022/06/11 10:03:41;;;;;;;5.80;3.00;;;;;;;25.40;51.44;100628.64;105846;1291;62083;-83
2022/06/11 10:06:16;;;;;;;3.90;2.90;;;;;;;25.41;51.36;100628.98;106100;1290;63537;-81
2022/06/11 10:09:05;;;;;;;4.60;2.90;;;;;;;25.41;51.35;100628.07;106242;1290;72842;-84
2022/06/11 10:11:36;;;;;;;5.00;2.90;;;;;;;25.41;51.45;100630.17;105808;1291;76791;-81
2022/06/11 10:14:30;;;;;;;4.10;3.00;;;;;;;25.41;51.55;100630.02;106610;1281;61946;-82
2022/06/11 10:17:34;;;;;;;4.60;3.20;;;;;;;25.41;51.67;100620.65;107274;1281;62044;-83
2022/06/11 10:20:11;;;;;;;5.30;3.00;;;;;;;25.41;51.50;100614.20;107256;1281;72713;-83
2022/06/11 10:22:53;;;;;;;4.00;2.90;;;;;;;25.41;51.57;100612.73;107271;1281;76396;-83
2022/06/11 10:25:20;;;;;;;3.60;2.90;;;;;;;25.41;51.61;100613.98;106894;1284;62074;-82
2022/06/11 10:28:10;;;;;;;4.80;2.70;;;;;;;25.41;51.72;100614.14;106908;1283;62100;-82
2022/06/11 10:30:42;;;;;;;4.10;3.00;;;;;;;25.42;51.61;100611.40;106630;1285;73060;-82
2022/06/11 10:33:45;;;;;;;5.00;2.80;;;;;;;25.42;51.76;100610.84;107127;1283;76659;-84
2022/06/11 10:36:19;;;;;;;4.10;2.90;;;;;;;25.42;51.72;100609.41;106731;1283;62107;-83
2022/06/11 10:39:00;;;;;;;4.60;2.70;;;;;;;25.42;51.64;100606.02;107225;1283;61924;-82
2022/06/11 10:41:44;;;;;;;5.20;2.80;;;;;;;25.42;51.52;100605.09;106537;1283;72676;-83
2022/06/11 10:44:12;;;;;;;4.30;2.80;;;;;;;25.42;51.69;100604.55;107223;1283;76757;-80
2022/06/11 10:46:38;;;;;;;4.90;3.10;;;;;;;25.42;51.47;100599.71;107086;1283;61832;-82
2022/06/11 10:49:14;;;;;;;4.30;2.90;;;;;;;25.42;51.62;100601.86;106845;1283;62214;-83
2022/06/11 10:51:39;;;;;;;4.20;3.10;;;;;;;25.42;51.73;100599.69;107242;1281;73566;-82
2022/06/11 10:54:18;;;;;;;5.20;3.10;;;;;;;25.42;51.57;100601.13;107185;1281;62087;-84
2022/06/11 10:56:58;;;;;;;4.30;3.10;;;;;;;25.42;51.59;100597.89;107242;1281;62082;-83
2022/06/11 10:59:29;;;;;;;4.20;3.10;;;;;;;25.42;51.81;100599.86;106868;1283;61990;-83
2022/06/11 11:02:34;;;;;;;4.20;3.00;;;;;;;25.41;51.71;100598.27;107097;1281;73235;-82
2022/06/11 11:05:11;;;;;;;4.90;3.30;;;;;;;25.41;51.79;100599.74;107268;1281;76453;-83
2022/06/11 11:07:58;;;;;;;4.60;3.10;;;;;;;25.42;51.68;100598.44;107078;1281;61960;-82
2022/06/11 11:10:37;;;;;;;4.00;3.00;;;;;;;25.41;51.46;100592.52;107251;1281;61938;-81
2022/06/11 11:13:24;;;;;;;3.90;2.80;;;;;;;25.41;51.83;100597.02;107221;1281;72748;-83
2022/06/11 11:16:13;;;;;;;4.10;2.90;;;;;;;25.41;51.56;100595.56;107222;1281;74519;-83
2022/06/11 11:19:09;;;;;;;3.50;2.80;;;;;;;25.41;51.77;100597.77;107250;1283;62036;-83
2022/06/11 11:22:04;;;;;;;4.30;2.90;;;;;;;25.41;51.61;100596.34;107150;1283;62052;-82
2022/06/11 11:24:42;;;;;;;4.30;2.90;;;;;;;25.41;51.72;100597.07;107213;1283;73629;-83
2022/06/11 11:27:22;;;;;;;4.40;2.70;;;;;;;25.41;51.79;100601.34;107104;1283;76475;-83
2022/06/11 11:29:55;;;;;;;4.70;3.00;;;;;;;25.41;51.83;100595.79;107225;1283;62452;-82
2022/06/11 11:32:30;;;;;;;4.80;3.00;;;;;;;25.41;51.56;100596.84;106658;1283;61931;-82
2022/06/11 11:34:55;;;;;;;3.90;2.80;;;;;;;25.41;51.71;100592.70;107129;1283;72723;-82
2022/06/11 11:37:24;;;;;;;3.90;3.00;;;;;;;25.42;51.81;100596.78;106873;1283;62053;-82
2022/06/11 11:39:54;;;;;;;3.60;2.80;;;;;;;25.43;51.94;100596.73;106898;1283;61915;-82